createdAt,value
2023-05-14T07:59:47.838Z,11.70
2023-05-14T08:25:54.845Z,11.90
2023-05-14T08:43:28.343Z,12.20
2023-05-14T08:48:24.041Z,12.30
2023-05-14T08:53:17.393Z,12.50
2023-05-14T08:58:10.975Z,12.70
2023-05-14T09:03:06.796Z,12.80
2023-05-14T09:08:00.272Z,12.80
2023-05-14T09:12:53.546Z,12.90
2023-05-14T09:17:49.327Z,12.90
2023-05-14T09:22:44.033Z,12.90
2023-05-14T10:02:00.171Z,12.30
2023-05-14T10:06:55.641Z,12.40
2023-05-14T10:11:54.520Z,12.70
2023-05-14T10:16:51.089Z,12.90
2023-05-14T10:21:50.100Z,13.20
2023-05-14T10:26:44.100Z,13.70
2023-05-14T10:31:51.313Z,14.00
2023-05-14T10:36:46.057Z,13.90
2023-05-14T10:41:40.621Z,13.70
2023-05-14T10:46:34.257Z,13.40
2023-05-14T10:51:27.641Z,13.10
2023-05-14T10:56:23.232Z,12.90
2023-05-14T11:01:17.196Z,12.90
2023-05-14T11:06:11.314Z,12.90
2023-05-14T11:11:04.759Z,12.90
2023-05-14T11:16:06.290Z,12.80
2023-05-14T11:21:09.017Z,12.80
2023-05-14T11:26:02.482Z,13.00
2023-05-14T11:30:55.952Z,13.10
2023-05-14T11:35:50.780Z,13.00
2023-05-14T11:40:45.509Z,13.00
2023-05-14T11:45:39.060Z,13.10
2023-05-14T11:50:32.563Z,13.10
2023-05-14T11:55:27.612Z,13.10
2023-05-14T12:00:23.258Z,13.20
2023-05-14T12:05:16.769Z,13.40
2023-05-14T12:10:13.276Z,13.30
2023-05-14T12:15:14.511Z,13.20
2023-05-14T12:20:12.496Z,13.10
2023-05-14T12:25:11.536Z,12.80
2023-05-14T12:30:20.548Z,12.60
2023-05-14T12:35:23.388Z,12.40
2023-05-14T12:40:17.451Z,12.10
2023-05-14T12:45:11.702Z,11.90
2023-05-14T12:50:06.023Z,11.90
2023-05-14T13:10:06.706Z,11.70
2023-05-14T13:15:00.028Z,11.80
2023-05-14T13:19:53.331Z,11.80
2023-05-14T13:40:16.771Z,12.00
2023-05-14T14:03:24.290Z,11.90
2023-05-14T14:21:35.353Z,12.00
